Time;durP1;ratioP1;P1;durP2;ratioP2;P2;SDS_P1;SDS_P2;PMS_P1;PMS_P2;Temp;Humidity;BMP_temperature;BMP_pressure;BME280_temperature;BME280_humidity;BME280_pressure;Samples;Min_cycle;Max_cycle;Signal;HPM_P1;HPM_P2
2022/08/17 00:00:38;;;;;;;17.65;1.60;;;;;;;26.12;59.30;98933.66;7311094;19;130703;-40
2022/08/17 00:03:08;;;;;;;31.00;2.47;;;;;;;26.13;58.46;98930.03;7314195;19;129065;-39
2022/08/17 00:05:38;;;;;;;31.08;2.55;;;;;;;26.12;59.32;98931.00;7315171;19;128924;-39
2022/08/17 00:08:04;;;;;;;16.60;1.48;;;;;;;26.12;58.53;98938.91;7315449;19;131049;-38
2022/08/17 00:10:30;;;;;;;15.60;1.33;;;;;;;25.79;54.34;98933.22;7314442;19;129481;-38
2022/08/17 00:12:55;;;;;;;19.23;1.67;;;;;;;25.68;53.92;98936.31;7313683;19;128768;-40
2022/08/17 00:15:21;;;;;;;32.90;2.63;;;;;;;25.87;57.32;98934.91;7315903;19;129352;-39
2022/08/17 00:17:49;;;;;;;16.17;1.40;;;;;;;25.98;57.33;98937.91;7314947;19;129224;-37
2022/08/17 00:20:15;;;;;;;15.23;1.40;;;;;;;26.03;58.31;98932.94;7313476;19;129577;-39
2022/08/17 00:22:41;;;;;;;;;;;;;;;26.06;59.93;98919.41;7314833;19;128960;-38
2022/08/17 00:25:11;;;;;;;18.97;1.67;;;;;;;26.10;58.60;98933.84;7313351;19;129920;-40
2022/08/17 00:27:36;;;;;;;15.73;1.50;;;;;;;26.11;57.50;98939.94;7315330;19;129642;-38
2022/08/17 00:30:05;;;;;;;11.63;1.10;;;;;;;26.12;58.81;98937.13;7314161;19;130379;-37
2022/08/17 00:32:45;;;;;;;19.52;1.73;;;;;;;26.12;59.29;98938.91;7313497;19;129341;-37
2022/08/17 00:35:14;;;;;;;30.08;2.53;;;;;;;26.10;58.65;98940.94;7311733;19;129172;-39
2022/08/17 00:37:39;;;;;;;35.85;2.95;;;;;;;26.11;58.45;98943.41;7314115;19;131503;-42
2022/08/17 00:40:07;;;;;;;17.07;1.50;;;;;;;26.11;58.28;98938.13;7313111;19;130276;-39
2022/08/17 00:42:33;;;;;;;13.82;1.30;;;;;;;26.12;58.72;98936.28;7312476;19;129386;-40
2022/08/17 00:44:58;;;;;;;18.53;1.67;;;;;;;26.11;57.82;98932.03;7310451;19;129553;-37
2022/08/17 00:47:24;;;;;;;19.37;1.67;;;;;;;26.13;58.44;98941.38;7313946;19;129115;-39
2022/08/17 00:49:49;;;;;;;14.70;1.57;;;;;;;26.14;58.71;98942.19;7312984;19;129438;-38
2022/08/17 00:52:20;;;;;;;21.00;1.70;;;;;;;26.13;59.12;98941.38;7312871;19;129226;-38
2022/08/17 00:54:51;;;;;;;17.90;1.48;;;;;;;26.13;59.73;98936.09;7311465;19;129008;-38
2022/08/17 00:57:28;;;;;;;30.08;2.45;;;;;;;25.73;54.54;98934.75;7314270;19;129126;-40
2022/08/17 01:00:07;;;;;;;21.63;1.77;;;;;;;25.69;53.36;98936.13;7313282;19;129561;-39
2022/08/17 01:02:38;;;;;;;13.70;1.27;;;;;;;25.91;57.10;98937.03;7313264;19;128805;-38
2022/08/17 01:05:05;;;;;;;14.88;1.40;;;;;;;25.92;58.28;98922.84;7310589;19;128609;-40
2022/08/17 01:07:30;;;;;;;13.98;1.40;;;;;;;26.06;58.02;98940.50;7312696;19;129255;-37
2022/08/17 01:09:57;;;;;;;38.73;3.13;;;;;;;26.10;58.34;98941.75;7312900;19;129378;-37
2022/08/17 01:12:22;;;;;;;18.05;1.65;;;;;;;26.11;57.74;98940.75;7312492;19;129308;-38
2022/08/17 01:14:48;;;;;;;20.40;2.03;;;;;;;26.11;58.51;98932.84;7310526;19;128935;-39
2022/08/17 01:17:13;;;;;;;15.27;1.40;;;;;;;26.06;58.58;98934.41;7312891;19;129213;-36
2022/08/17 01:19:41;;;;;;;31.53;2.50;;;;;;;26.09;58.12;98940.13;7312168;19;130301;-38
2022/08/17 01:22:16;;;;;;;6.63;0.77;;;;;;;26.15;59.56;98955.19;7313294;19;129105;-38
2022/08/17 01:25:10;;;;;;;14.55;1.30;;;;;;;26.12;59.27;98950.28;7310636;19;129038;-39
2022/08/17 01:27:37;;;;;;;13.57;1.35;;;;;;;26.13;57.93;98946.63;7312846;19;129317;-37
2022/08/17 01:30:07;;;;;;;16.27;1.52;;;;;;;26.12;59.77;98939.75;7312506;19;129661;-36
2022/08/17 01:32:33;;;;;;;21.33;1.75;;;;;;;26.15;57.84;98949.91;7312101;19;129373;-38
2022/08/17 01:34:59;;;;;;;41.47;3.23;;;;;;;26.07;58.41;98936.03;7310026;19;128895;-38
2022/08/17 01:37:34;;;;;;;15.18;1.33;;;;;;;26.16;60.30;98942.84;7313614;19;130477;-39
2022/08/17 01:40:20;;;;;;;14.77;1.30;;;;;;;26.16;60.11;98946.28;7310843;19;129972;-37
2022/08/17 01:42:53;;;;;;;17.75;1.52;;;;;;;26.16;59.58;98941.03;7311214;19;129131;-38
2022/08/17 01:45:23;;;;;;;11.30;1.15;;;;;;;25.73;54.14;98939.22;7312519;19;128969;-38
2022/08/17 01:47:50;;;;;;;27.85;2.25;;;;;;;25.75;54.55;98955.63;7311515;19;129207;-39
2022/08/17 01:50:19;;;;;;;36.08;3.03;;;;;;;25.88;58.07;98937.41;7311776;19;129228;-39
2022/08/17 01:52:48;;;;;;;11.20;1.08;;;;;;;26.03;57.97;98954.00;7311820;19;128993;-37
2022/08/17 01:55:16;;;;;;;4.55;0.57;;;;;;;26.08;58.69;98956.91;7308743;19;128918;-39
2022/08/17 01:57:44;;;;;;;21.38;1.83;;;;;;;26.10;57.07;98954.91;7311778;19;128963;-38
2022/08/17 02:00:10;;;;;;;40.83;3.28;;;;;;;26.13;57.78;98956.38;7311503;19;130883;-40
2022/08/17 02:02:35;;;;;;;15.67;1.47;;;;;;;26.15;58.44;98959.63;7312691;19;129551;-37
2022/08/17 02:05:01;;;;;;;13.57;1.30;;;;;;;26.16;57.56;98956.84;7309060;19;129167;-39
2022/08/17 02:07:27;;;;;;;10.87;1.07;;;;;;;26.16;58.75;98953.38;7311942;19;130305;-38
2022/08/17 02:09:52;;;;;;;41.40;3.33;;;;;;;26.16;58.64;98956.84;7311773;19;130426;-38
2022/08/17 02:12:18;;;;;;;20.10;1.73;;;;;;;26.17;58.27;98957.63;7312514;19;129287;-38
2022/08/17 02:14:44;;;;;;;14.87;1.40;;;;;;;26.15;58.30;98965.72;7309276;19;129023;-39
2022/08/17 02:17:09;;;;;;;24.17;2.07;;;;;;;26.17;58.15;98965.53;7311314;19;129624;-39
2022/08/17 02:19:34;;;;;;;31.80;2.63;;;;;;;26.18;58.81;98960.06;7311372;19;131145;-38
2022/08/17 02:22:00;;;;;;;13.97;1.20;;;;;;;26.20;58.02;98962.53;7311347;19;129209;-38
2022/08/17 02:24:30;;;;;;;15.43;1.50;;;;;;;26.10;58.76;98941.75;7316703;19;129138;-39
2022/08/17 02:26:56;;;;;;;21.83;1.83;;;;;;;26.17;57.80;98952.34;7317065;19;129430;-38
2022/08/17 02:29:21;;;;;;;35.63;2.90;;;;;;;26.16;58.68;98946.28;7317369;19;129658;-38
2022/08/17 02:31:47;;;;;;;15.07;1.47;;;;;;;25.98;55.08;98948.44;7317266;19;128993;-39
2022/08/17 02:34:13;;;;;;;13.97;1.33;;;;;;;25.73;53.67;98941.84;7315874;19;129672;-38
2022/08/17 02:36:38;;;;;;;19.67;1.80;;;;;;;25.83;56.04;98950.28;7316661;19;129270;-38
2022/08/17 02:39:07;;;;;;;28.17;2.47;;;;;;;25.90;58.38;98938.00;7317657;19;129346;-40
2022/08/17 02:41:33;;;;;;;18.48;1.73;;;;;;;26.05;57.67;98944.09;7314860;19;128891;-38
2022/08/17 02:43:58;;;;;;;16.97;1.50;;;;;;;26.08;57.95;98943.72;7315949;19;129204;-38
2022/08/17 02:46:24;;;;;;;29.90;2.57;;;;;;;26.14;57.61;98948.28;7316946;19;129131;-39
2022/08/17 02:48:50;;;;;;;23.70;2.03;;;;;;;26.16;58.33;98946.28;7317449;19;129677;-40
2022/08/17 02:51:16;;;;;;;18.20;1.57;;;;;;;26.14;58.80;98943.03;7317335;19;128809;-38
2022/08/17 02:53:42;;;;;;;;;;;;;;;26.22;60.28;98945.53;7315938;19;129130;-39
2022/08/17 02:56:07;;;;;;;36.33;3.03;;;;;;;26.18;58.66;98952.16;7316085;19;129154;-37
2022/08/17 02:58:33;;;;;;;18.17;1.60;;;;;;;26.16;58.56;98951.56;7317397;19;129277;-39
2022/08/17 03:00:59;;;;;;;18.83;1.90;;;;;;;26.16;58.73;98945.47;7315669;19;129136;-38
2022/08/17 03:03:24;;;;;;;16.30;1.47;;;;;;;26.19;57.79;98945.09;7316176;19;129456;-39
2022/08/17 03:05:50;;;;;;;37.33;3.10;;;;;;;26.14;57.83;98936.91;7316409;19;129769;-39
2022/08/17 03:08:16;;;;;;;16.60;1.50;;;;;;;26.19;58.14;98948.56;7317114;19;129739;-38
2022/08/17 03:10:43;;;;;;;15.52;1.77;;;;;;;26.19;57.41;98951.19;7317395;19;128880;-37
2022/08/17 03:13:09;;;;;;;20.88;1.85;;;;;;;26.18;58.61;98946.09;7315877;19;129129;-38
2022/08/17 03:15:34;;;;;;;36.07;3.10;;;;;;;26.19;57.97;98940.66;7316928;19;129218;-39
2022/08/17 03:18:01;;;;;;;16.83;1.60;;;;;;;26.18;58.52;98941.63;7317648;19;129296;-38
2022/08/17 03:20:29;;;;;;;15.75;1.50;;;;;;;25.88;55.24;98944.47;7316273;19;129515;-40
2022/08/17 03:22:56;;;;;;;16.65;1.63;;;;;;;25.72;53.69;98937.56;7315304;19;129444;-36
2022/08/17 03:25:27;;;;;;;40.33;3.30;;;;;;;25.87;57.54;98941.00;7316681;19;130645;-37
2022/08/17 03:27:53;;;;;;;20.73;1.80;;;;;;;26.00;58.20;98933.28;7316829;19;130375;-40
2022/08/17 03:30:21;;;;;;;15.70;1.70;;;;;;;26.01;57.95;98921.78;7316396;19;129739;-39
2022/08/17 03:32:49;;;;;;;14.30;1.27;;;;;;;26.11;58.51;98932.84;7315015;19;129935;-37
2022/08/17 03:35:18;;;;;;;24.30;2.20;;;;;;;26.15;58.92;98928.00;7312792;19;129503;-38
2022/08/17 03:37:44;;;;;;;19.65;1.83;;;;;;;26.16;57.60;98929.66;7316671;19;131166;-39
2022/08/17 03:40:10;;;;;;;17.83;1.60;;;;;;;26.16;57.84;98930.47;7316165;19;129125;-38
2022/08/17 03:42:39;;;;;;;15.82;1.52;;;;;;;26.17;59.07;98926.84;7314476;19;129371;-37
2022/08/17 03:45:07;;;;;;;28.42;2.40;;;;;;;26.09;58.56;98912.94;7313072;19;130281;-37
2022/08/17 03:58:35;;;;;;;18.48;1.73;;;;;;;26.22;58.53;98927.09;7315961;19;128997;-38
2022/08/17 04:01:01;;;;;;;17.90;1.60;;;;;;;26.19;58.13;98930.09;7313322;19;129251;-37
2022/08/17 04:03:26;;;;;;;9.17;1.00;;;;;;;26.19;58.50;98931.91;7313107;19;128947;-38
2022/08/17 04:05:52;;;;;;;55.07;4.17;;;;;;;26.20;58.76;98931.72;7311369;19;129605;-39
2022/08/17 04:08:17;;;;;;;5.57;0.73;;;;;;;25.96;54.20;98925.94;7313809;19;129301;-37
2022/08/17 04:10:43;;;;;;;20.37;2.03;;;;;;;25.77;54.16;98932.56;7314080;19;129200;-38
2022/08/17 04:13:08;;;;;;;11.47;1.10;;;;;;;25.89;56.15;98933.75;7313491;19;129266;-38
2022/08/17 04:15:34;;;;;;;35.57;2.97;;;;;;;26.02;57.89;98933.13;7313784;19;129770;-42
2022/08/17 04:17:59;;;;;;;14.87;1.47;;;;;;;25.99;57.59;98918.47;7315137;19;130997;-37
2022/08/17 04:20:26;;;;;;;17.77;1.77;;;;;;;26.14;58.42;98929.84;7313787;19;129390;-39
2022/08/17 04:23:13;;;;;;;17.00;1.55;;;;;;;26.19;59.49;98934.56;7313008;19;128595;-39
2022/08/17 04:25:43;;;;;;;15.50;1.50;;;;;;;26.17;58.19;98933.91;7314386;19;130177;-39
2022/08/17 04:28:08;;;;;;;40.10;3.20;;;;;;;26.18;58.14;98944.25;7314759;19;130226;-37
2022/08/17 04:30:36;;;;;;;21.07;2.17;;;;;;;26.18;58.06;98949.53;7315974;19;129388;-37
2022/08/17 04:33:07;;;;;;;15.45;1.52;;;;;;;26.17;58.69;98947.91;7313740;19;128762;-37
2022/08/17 04:35:54;;;;;;;16.55;1.58;;;;;;;26.22;59.88;98950.81;7313862;19;129539;-39
2022/08/17 04:38:28;;;;;;;17.92;1.58;;;;;;;26.22;59.82;98950.81;7313939;19;129558;-37
2022/08/17 04:43:41;;;;;;;33.22;2.80;;;;;;;26.21;59.11;98949.19;7312640;19;129273;-40
2022/08/17 04:46:19;;;;;;;24.55;2.03;;;;;;;26.18;57.80;98951.38;7313139;19;129083;-38
2022/08/17 04:48:47;;;;;;;15.40;1.40;;;;;;;26.21;58.87;98959.72;7314164;19;129889;-39
2022/08/17 04:51:19;;;;;;;14.88;1.48;;;;;;;26.13;59.57;98949.28;7314219;19;129257;-37
2022/08/17 04:53:46;;;;;;;18.92;1.75;;;;;;;26.22;58.41;98961.34;7312172;19;129153;-38
2022/08/17 04:56:14;;;;;;;35.10;2.83;;;;;;;25.82;54.55;98964.44;7313613;19;129450;-36
2022/08/17 04:58:41;;;;;;;28.40;2.42;;;;;;;25.76;54.01;98972.25;7313618;19;129376;-40
2022/08/17 05:01:06;;;;;;;15.48;1.38;;;;;;;25.95;57.30;98969.88;7312350;19;129728;-37
2022/08/17 05:03:31;;;;;;;15.53;1.40;;;;;;;26.06;57.75;98974.75;7311088;19;129193;-38
2022/08/17 05:05:57;;;;;;;34.57;2.80;;;;;;;26.14;57.87;98973.81;7312398;19;129515;-39
2022/08/17 05:08:22;;;;;;;27.33;2.23;;;;;;;26.16;58.02;98972.66;7312506;19;129364;-39
2022/08/17 05:10:48;;;;;;;10.47;1.10;;;;;;;26.18;57.68;98975.88;7313153;19;129077;-38
2022/08/17 05:13:23;;;;;;;15.90;1.57;;;;;;;26.17;58.87;98962.91;7311418;19;128764;-38
2022/08/17 05:15:53;;;;;;;24.92;2.10;;;;;;;26.20;59.38;98968.63;7313914;19;129215;-38
2022/08/17 05:18:20;;;;;;;33.97;2.78;;;;;;;26.12;57.74;98952.09;7311861;19;129953;-39
2022/08/17 05:20:45;;;;;;;17.38;1.70;;;;;;;26.21;58.07;98972.09;7311995;19;129020;-37
2022/08/17 05:23:14;;;;;;;18.03;1.60;;;;;;;26.22;58.60;98976.34;7311764;19;129371;-39
2022/08/17 05:25:42;;;;;;;21.88;2.00;;;;;;;26.22;58.99;98982.44;7311974;19;129006;-37
2022/08/17 05:28:09;;;;;;;28.23;2.35;;;;;;;26.20;58.81;98983.59;7312643;19;129105;-39
2022/08/17 05:30:35;;;;;;;17.88;1.83;;;;;;;26.21;58.88;98986.09;7313663;19;129082;-38
2022/08/17 05:33:08;;;;;;;18.88;1.85;;;;;;;26.21;59.92;98983.44;7311502;19;128726;-38
2022/08/17 05:35:36;;;;;;;13.38;1.30;;;;;;;26.19;58.78;98985.44;7312688;19;129307;-38
2022/08/17 05:38:01;;;;;;;36.10;2.97;;;;;;;26.22;58.38;98982.44;7311667;19;129520;-38
2022/08/17 05:40:27;;;;;;;25.33;2.43;;;;;;;26.23;59.09;98983.25;7312525;19;129259;-37
2022/08/17 05:43:04;;;;;;;14.00;1.37;;;;;;;26.06;55.78;98982.66;7311631;19;128873;-37
2022/08/17 05:45:31;;;;;;;16.15;1.60;;;;;;;25.77;54.23;98982.59;7311578;19;129783;-37
2022/08/17 05:47:56;;;;;;;25.95;2.20;;;;;;;25.77;55.26;98971.28;7311970;19;129395;-37
2022/08/17 05:50:26;;;;;;;31.60;2.57;;;;;;;26.01;57.41;98977.09;7312158;19;129255;-39
2022/08/17 05:53:14;;;;;;;16.00;1.50;;;;;;;26.12;59.57;98981.91;7312728;19;128811;-37
2022/08/17 05:55:39;;;;;;;17.00;1.60;;;;;;;26.06;57.39;98980.00;7312175;19;129433;-38
2022/08/17 05:58:26;;;;;;;16.93;1.63;;;;;;;26.10;59.90;98977.84;7313302;19;129489;-39
2022/08/17 06:01:07;;;;;;;16.05;1.58;;;;;;;26.20;59.45;98994.97;7317580;19;129689;-37
2022/08/17 06:03:38;;;;;;;14.90;1.48;;;;;;;26.20;56.90;98989.69;7317713;19;129028;-37
2022/08/17 06:06:29;;;;;;;26.27;2.15;;;;;;;26.23;59.67;98996.44;7317834;19;129695;-37
2022/08/17 06:09:21;;;;;;;15.63;1.60;;;;;;;26.21;58.51;98996.63;7318115;19;130547;-37
2022/08/17 06:11:56;;;;;;;16.30;1.55;;;;;;;26.20;59.76;98989.69;7315849;19;128938;-37
2022/08/17 06:14:37;;;;;;;35.25;2.88;;;;;;;26.24;59.81;98996.25;7316246;19;128986;-38
2022/08/17 06:17:14;;;;;;;37.97;3.33;;;;;;;26.23;59.41;98999.88;7317769;19;129597;-37
2022/08/17 06:19:39;;;;;;;;;;;;;;;26.21;60.00;98991.34;7319029;19;129413;-38
2022/08/17 06:22:09;;;;;;;15.17;1.40;;;;;;;26.24;58.81;99006.78;7315828;19;129257;-37
2022/08/17 06:24:41;;;;;;;12.35;1.30;;;;;;;26.22;59.72;99014.06;7316628;19;129011;-38
2022/08/17 06:27:23;;;;;;;20.17;1.83;;;;;;;26.23;59.68;99010.41;7316777;19;129469;-39
2022/08/17 06:30:21;;;;;;;27.92;2.47;;;;;;;26.23;59.66;99010.41;7317403;19;129166;-38
2022/08/17 06:32:48;;;;;;;16.30;1.67;;;;;;;25.79;54.48;99006.94;7317247;19;128771;-39
2022/08/17 06:35:20;;;;;;;34.47;2.80;;;;;;;25.75;53.49;99010.94;7315221;19;128999;-39
2022/08/17 06:38:03;;;;;;;24.33;2.17;;;;;;;25.99;58.64;99008.03;7317409;19;130750;-40
2022/08/17 06:40:39;;;;;;;22.92;2.30;;;;;;;26.07;58.77;99005.34;7317174;19;129460;-38
2022/08/17 06:43:24;;;;;;;18.42;1.52;;;;;;;26.14;59.58;99001.00;7316986;19;129077;-39
2022/08/17 06:46:29;;;;;;;16.58;1.55;;;;;;;26.18;59.75;99009.34;7318081;19;128802;-40
2022/08/17 06:49:06;;;;;;;24.67;2.10;;;;;;;26.20;59.16;99015.22;7316638;19;130160;-39
2022/08/17 06:51:42;;;;;;;22.50;2.33;;;;;;;26.19;59.42;99006.53;7317083;19;130039;-37
2022/08/17 06:54:21;;;;;;;20.42;1.92;;;;;;;26.20;59.48;99016.06;7315690;19;129049;-37
2022/08/17 06:56:56;;;;;;;17.15;1.67;;;;;;;26.22;59.46;99011.44;7316729;19;129411;-40
2022/08/17 06:59:32;;;;;;;22.60;2.13;;;;;;;26.15;59.76;98996.50;7317271;19;128939;-38
2022/08/17 07:02:04;;;;;;;16.67;1.60;;;;;;;26.21;59.30;99012.44;7313578;19;129705;-37
2022/08/17 07:04:32;;;;;;;37.22;3.03;;;;;;;26.13;58.65;98990.63;7314885;19;128858;-40
2022/08/17 07:08:00;;;;;;;18.58;1.92;;;;;;;26.21;58.82;99012.44;7317425;19;129247;-37
2022/08/17 07:09:54;;;;;;;23.95;2.00;;;;;;;26.20;59.44;99005.50;7315681;19;129925;-40
2022/08/17 07:12:28;;;;;;;16.73;1.60;;;;;;;26.21;59.19;99012.44;7315395;19;129793;-38
2022/08/17 07:15:11;;;;;;;15.25;1.45;;;;;;;26.24;60.22;98998.06;7314745;19;129074;-37
2022/08/17 07:17:38;;;;;;;14.93;1.42;;;;;;;26.22;59.04;99000.06;7316163;19;128872;-40
2022/08/17 07:20:09;;;;;;;24.52;2.08;;;;;;;25.82;53.57;99009.22;7316236;19;129601;-38
2022/08/17 07:22:43;;;;;;;26.58;2.22;;;;;;;25.81;54.83;99009.41;7312743;19;129125;-39
2022/08/17 07:25:12;;;;;;;17.48;1.70;;;;;;;26.01;57.49;99010.50;7314609;19;129456;-38
2022/08/17 07:27:44;;;;;;;17.27;1.63;;;;;;;26.08;57.67;99017.50;7315815;19;128724;-39
2022/08/17 07:30:20;;;;;;;6.60;0.85;;;;;;;26.14;59.02;99011.53;7316405;19;130213;-38
2022/08/17 07:32:49;;;;;;;7.78;0.93;;;;;;;26.11;58.51;99006.63;7315016;19;130448;-38
2022/08/17 07:35:17;;;;;;;35.67;2.85;;;;;;;26.19;57.41;99009.16;7313655;19;129027;-38
2022/08/17 07:37:52;;;;;;;17.70;1.58;;;;;;;26.20;57.92;99013.41;7317569;19;129094;-38
2022/08/17 07:40:34;;;;;;;9.93;1.35;;;;;;;26.16;59.76;99004.25;7315190;19;129362;-38
2022/08/17 07:43:19;;;;;;;14.73;1.38;;;;;;;26.14;59.36;98995.72;7315071;19;129320;-37
2022/08/17 07:48:45;;;;;;;18.95;1.85;;;;;;;26.22;58.47;99011.44;7316224;19;129042;-39
2022/08/17 07:51:34;;;;;;;13.43;1.25;;;;;;;26.23;60.46;99004.34;7315214;19;131316;-38
2022/08/17 07:54:04;;;;;;;7.95;0.90;;;;;;;26.24;58.34;99013.88;7313427;19;129343;-36
2022/08/17 07:57:00;;;;;;;15.82;1.55;;;;;;;26.14;58.72;99005.44;7314416;19;130315;-38
2022/08/17 07:59:30;;;;;;;18.40;1.75;;;;;;;26.22;58.90;99013.22;7313879;19;129561;-40
2022/08/17 08:01:55;;;;;;;23.92;1.98;;;;;;;26.22;58.57;99018.50;7311542;19;129209;-39
2022/08/17 08:04:42;;;;;;;45.63;3.60;;;;;;;26.23;60.56;99015.69;7313259;19;130166;-38
2022/08/17 08:07:22;;;;;;;24.10;2.13;;;;;;;25.79;54.42;99017.47;7314864;19;129139;-39
2022/08/17 08:10:14;;;;;;;16.88;1.55;;;;;;;25.79;54.93;99012.22;7316235;19;129088;-40
2022/08/17 08:12:43;;;;;;;19.23;1.75;;;;;;;26.00;57.94;99009.66;7314870;19;129025;-38
2022/08/17 08:15:24;;;;;;;14.70;1.33;;;;;;;26.08;59.74;98996.44;7312360;19;129669;-40
2022/08/17 08:17:52;;;;;;;26.92;2.63;;;;;;;26.15;57.23;99002.59;7310199;19;129505;-39
2022/08/17 08:20:22;;;;;;;20.02;1.80;;;;;;;26.17;58.36;99007.69;7309585;19;129622;-38
2022/08/17 08:23:16;;;;;;;19.70;1.80;;;;;;;26.20;59.18;99008.16;7310886;19;129196;-37
2022/08/17 08:26:27;;;;;;;23.80;2.03;;;;;;;26.22;59.33;99008.78;7315255;19;130367;-39
2022/08/17 08:29:02;;;;;;;15.80;1.42;;;;;;;26.22;59.00;99007.97;7313067;19;129681;-39
2022/08/17 08:31:46;;;;;;;27.05;2.63;;;;;;;26.20;57.78;99005.50;7313754;19;129208;-39
2022/08/17 08:34:36;;;;;;;6.80;0.80;;;;;;;26.21;59.52;99011.63;7312392;19;129807;-38
2022/08/17 08:37:17;;;;;;;16.08;1.60;;;;;;;26.21;59.52;99007.16;7314563;19;129667;-38
2022/08/17 08:40:11;;;;;;;28.63;2.40;;;;;;;26.20;57.96;98999.41;7314033;19;128988;-38
2022/08/17 08:42:59;;;;;;;18.65;1.70;;;;;;;26.20;59.86;99004.69;7308611;19;129837;-40
2022/08/17 08:45:51;;;;;;;16.13;1.42;;;;;;;26.19;59.83;99003.88;7312131;19;129201;-37
2022/08/17 08:48:38;;;;;;;15.18;1.58;;;;;;;26.19;60.01;99003.88;7313056;19;129479;-38
2022/08/17 08:51:04;;;;;;;16.37;1.57;;;;;;;26.19;58.73;98998.63;7314125;19;128973;-39
2022/08/17 08:54:00;;;;;;;36.47;2.93;;;;;;;25.95;55.09;99006.75;7312563;19;129565;-37
2022/08/17 08:56:43;;;;;;;22.05;1.88;;;;;;;25.77;53.51;99005.50;7313377;19;130220;-40
2022/08/17 08:59:26;;;;;;;32.22;2.70;;;;;;;25.93;57.09;99003.50;7313790;19;129500;-39
2022/08/17 09:02:12;;;;;;;35.75;2.97;;;;;;;26.07;59.33;98994.81;7310486;19;129534;-38
2022/08/17 09:05:26;;;;;;;38.78;3.03;;;;;;;26.13;59.71;99004.59;7310550;19;128860;-39
2022/08/17 09:08:25;;;;;;;18.92;1.75;;;;;;;26.16;59.48;98999.00;7307784;19;129370;-39
2022/08/17 09:11:09;;;;;;;16.67;1.63;;;;;;;26.11;59.80;98985.56;7312774;19;129389;-36
2022/08/17 09:13:48;;;;;;;17.02;1.60;;;;;;;26.20;59.56;99002.88;7311227;19;129088;-38
2022/08/17 09:16:28;;;;;;;14.90;1.55;;;;;;;26.19;59.68;99005.69;7311947;19;128960;-39
2022/08/17 09:19:07;;;;;;;14.63;1.30;;;;;;;26.20;59.27;99013.41;7313126;19;130082;-38
2022/08/17 09:21:42;;;;;;;40.42;3.65;;;;;;;26.14;58.47;98990.44;7310402;19;129373;-38
2022/08/17 09:24:22;;;;;;;30.92;2.50;;;;;;;26.21;59.74;98996.63;7311151;19;129194;-38
2022/08/17 09:26:58;;;;;;;38.00;3.20;;;;;;;26.14;60.12;98982.53;7313039;19;129207;-38
2022/08/17 09:29:28;;;;;;;16.90;1.58;;;;;;;26.20;58.85;98994.97;7313481;19;129770;-38
2022/08/17 09:32:02;;;;;;;24.33;2.13;;;;;;;26.20;59.94;98994.97;7311894;19;130368;-37
2022/08/17 09:34:41;;;;;;;16.20;1.50;;;;;;;26.22;60.16;98992.16;7310621;19;129292;-39
2022/08/17 09:37:26;;;;;;;14.77;1.45;;;;;;;26.20;58.65;98994.97;7312040;19;129045;-36
2022/08/17 09:40:12;;;;;;;12.32;1.20;;;;;;;26.22;59.83;98992.97;7312131;19;130156;-38
2022/08/17 09:42:48;;;;;;;17.52;1.60;;;;;;;25.86;53.96;98992.06;7309337;19;129201;-38
2022/08/17 09:45:39;;;;;;;28.88;2.42;;;;;;;25.79;53.78;99000.84;7309714;19;128881;-38
2022/08/17 09:48:16;;;;;;;20.40;1.70;;;;;;;26.00;58.03;98983.31;7312030;19;128896;-37
2022/08/17 09:51:05;;;;;;;48.38;3.80;;;;;;;26.09;58.86;98989.34;7311649;19;129944;-37
2022/08/17 09:53:32;;;;;;;37.20;3.13;;;;;;;26.13;58.40;98980.88;7310341;19;129466;-39
2022/08/17 09:56:08;;;;;;;14.10;1.30;;;;;;;26.18;59.51;98989.06;7312770;19;128983;-41
2022/08/17 09:58:46;;;;;;;17.10;1.53;;;;;;;26.21;59.60;98986.09;7312322;19;129355;-38
2022/08/17 10:01:41;;;;;;;16.48;1.63;;;;;;;26.22;59.74;98982.44;7310627;19;129933;-38
2022/08/17 10:04:18;;;;;;;16.63;1.67;;;;;;;26.14;59.60;98974.63;7310569;19;129476;-37
2022/08/17 10:06:51;;;;;;;;;;;;;;;26.28;59.92;98984.31;7311862;19;129343;-39
2022/08/17 10:09:26;;;;;;;15.55;1.42;;;;;;;26.24;58.92;98987.53;7311994;19;129220;-37
2022/08/17 10:12:18;;;;;;;17.42;1.60;;;;;;;26.22;58.73;98982.44;7310090;19;129534;-38
2022/08/17 10:15:05;;;;;;;12.07;1.17;;;;;;;26.22;60.07;98971.91;7308665;19;129527;-39
2022/08/17 10:17:49;;;;;;;15.60;1.30;;;;;;;26.21;60.15;98975.53;7310939;19;129074;-37
2022/08/17 10:20:32;;;;;;;17.83;1.50;;;;;;;26.12;59.59;98960.81;7311022;19;129242;-38
2022/08/17 10:26:12;;;;;;;27.15;2.20;;;;;;;26.23;60.31;98980.63;7306083;19;129905;-39
2022/08/17 10:28:59;;;;;;;15.45;1.50;;;;;;;26.23;59.10;98981.41;7311126;19;129249;-39
2022/08/17 10:31:45;;;;;;;28.38;2.53;;;;;;;25.83;54.15;98979.25;7311003;19;129147;-38
2022/08/17 10:34:46;;;;;;;19.90;1.67;;;;;;;25.84;56.14;98970.34;7307901;19;129826;-38
2022/08/17 10:37:30;;;;;;;11.80;1.15;;;;;;;26.06;58.85;98974.75;7310216;19;130495;-38
2022/08/17 10:40:22;;;;;;;16.23;1.58;;;;;;;26.13;59.49;98972.97;7309547;19;128910;-37
2022/08/17 10:42:53;;;;;;;14.25;1.30;;;;;;;26.08;58.67;98958.75;7307740;19;129268;-37
2022/08/17 10:45:30;;;;;;;23.67;1.98;;;;;;;26.18;58.85;98977.72;7316553;19;130573;-39
2022/08/17 10:48:26;;;;;;;36.60;3.00;;;;;;;26.13;59.75;98965.06;7316974;19;129520;-38
2022/08/17 10:50:54;;;;;;;22.10;1.88;;;;;;;26.23;58.59;98973.50;7314712;19;129583;-38
2022/08/17 10:53:32;;;;;;;33.88;2.80;;;;;;;26.22;59.97;98974.53;7315735;19;129627;-39
2022/08/17 10:56:12;;;;;;;;;;;;;;;26.28;60.13;98959.81;7318164;19;129530;-38
2022/08/17 10:58:50;;;;;;;14.80;1.38;;;;;;;26.21;59.24;98962.38;7317787;19;129466;-39
2022/08/17 11:01:16;;;;;;;15.80;1.45;;;;;;;26.22;57.40;98965.78;7316201;19;128762;-37
2022/08/17 11:03:53;;;;;;;17.45;1.58;;;;;;;26.14;60.11;98950.94;7315147;19;129428;-38
2022/08/17 11:06:24;;;;;;;18.30;1.65;;;;;;;26.21;58.11;98964.19;7317032;19;130505;-39
2022/08/17 11:09:04;;;;;;;34.47;2.75;;;;;;;26.22;60.17;98960.53;7315591;19;129379;-39
2022/08/17 11:11:53;;;;;;;47.13;4.05;;;;;;;26.21;60.43;98953.63;7316326;19;128938;-39
2022/08/17 11:14:37;;;;;;;38.55;3.15;;;;;;;26.21;59.76;98943.91;7314893;19;128837;-39
2022/08/17 11:17:08;;;;;;;34.63;3.00;;;;;;;26.20;59.70;98954.63;7316291;19;131340;-39
2022/08/17 11:19:55;;;;;;;15.15;1.45;;;;;;;25.84;53.93;98946.66;7317006;19;130845;-40
2022/08/17 11:22:48;;;;;;;18.33;1.57;;;;;;;25.77;53.75;98940.47;7315037;19;128961;-37
2022/08/17 11:25:20;;;;;;;22.27;1.98;;;;;;;25.99;57.97;98947.47;7315562;19;129493;-38
2022/08/17 11:27:52;;;;;;;19.30;1.77;;;;;;;26.08;58.90;98943.72;7316161;19;129859;-40
2022/08/17 11:30:39;;;;;;;15.27;1.45;;;;;;;26.14;59.64;98945.66;7315104;19;129426;-41
2022/08/17 11:33:35;;;;;;;16.60;1.55;;;;;;;26.18;59.87;98939.00;7315470;19;128887;-37
2022/08/17 11:36:30;;;;;;;15.57;1.40;;;;;;;26.21;60.21;98938.66;7315692;19;128980;-39
2022/08/17 11:38:58;;;;;;;17.52;1.50;;;;;;;26.20;57.47;98931.72;7316229;19;129700;-40
2022/08/17 11:41:47;;;;;;;19.25;1.73;;;;;;;26.20;58.90;98937.00;7315729;19;129271;-38
2022/08/17 11:44:21;;;;;;;24.25;2.08;;;;;;;26.21;58.41;98933.38;7313282;19;128927;-34
2022/08/17 11:52:49;;;;;;;18.73;1.60;;;;;;;26.21;58.96;98922.84;7315910;19;129078;-39
2022/08/17 11:55:55;;;;;;;16.17;1.55;;;;;;;26.24;60.52;98917.19;7309686;19;129214;-39
2022/08/17 11:58:30;;;;;;;16.10;1.65;;;;;;;26.23;60.45;98920.81;7315568;19;129376;-38
2022/08/17 12:01:21;;;;;;;16.25;1.38;;;;;;;26.24;60.18;98922.47;7314160;19;130105;-39
2022/08/17 12:03:55;;;;;;;16.92;1.55;;;;;;;26.22;58.92;98928.91;7312976;19;129562;-38
2022/08/17 12:06:42;;;;;;;15.68;1.35;;;;;;;26.10;56.48;98922.50;7313993;19;129108;-39
2022/08/17 12:09:14;;;;;;;16.27;1.48;;;;;;;25.78;53.61;98925.50;7314603;19;129001;-37
2022/08/17 12:11:48;;;;;;;43.38;3.72;;;;;;;25.91;57.68;98926.50;7314070;19;129264;-36
2022/08/17 12:14:25;;;;;;;30.60;2.42;;;;;;;26.04;58.06;98926.69;7313405;19;129612;-37
2022/08/17 12:17:04;;;;;;;12.57;1.35;;;;;;;26.12;59.34;98918.66;7315466;19;129254;-37